Emma Miller — WDE7441 — position and weather

sailwx.info

Track history (hours):
 
Tides and Currents Weather Stations Pressure Air Temp Water Temp Dewpoint Dewpoint Depression Visibility Wind Speed Wind Dir Waves Ship Positions

Emma Miller

Owner: Marine Oil Service of New York, Elizabeth, NJ. More information available from US FCC via Universal Licensing System and Coast Guard Vessel Documentation Center.

Last reported at 2017-Nov-19 10:00 UTC. Time now 2017-Nov-19 10:07 UTC.
Position N 40°39' W 074°04'.

; draft 1.7 m.

Type: Tanker. MMSI: 367393330.

Date/timePositionNaut miles runAvg speedWind from/ knotsBaromVisibWave heightAir tempDewpointWater temp
2017-Nov-19 10:00N 40°39' W 074°04'0 0.0
2017-Nov-19 09:30N 40°39' W 074°04'0 0.0
2017-Nov-19 09:00N 40°39' W 074°04'0 0.3
2017-Nov-19 08:30N 40°38' W 074°04'4 7.5
2017-Nov-19 07:57N 40°39' W 074°10'2 0.1
2017-Nov-18 16:23N 40°38' W 074°12'2 5.8
2017-Nov-18 16:00N 40°39' W 074°09'3 6.3
2017-Nov-18 15:30N 40°39' W 074°05'1 1.4
2017-Nov-18 14:55N 40°40' W 074°04'0 0.0
2017-Nov-18 14:30N 40°40' W 074°04'0 0.0
2017-Nov-18 14:00N 40°40' W 074°04'0 0.0
2017-Nov-18 13:30N 40°40' W 074°04'3 6.0
2017-Nov-18 12:59N 40°39' W 074°08'3 6.0
2017-Nov-18 12:30N 40°38' W 074°12'0 0.0
2017-Nov-17 21:40N 40°38' W 074°12'1 4.1
2017-Nov-17 21:30N 40°39' W 074°11'4 8.4
2017-Nov-17 21:00N 40°39' W 074°06'1 2.8
2017-Nov-17 20:30N 40°38' W 074°04'0 0.0
2017-Nov-17 20:00N 40°38' W 074°04'0 0.0
2017-Nov-17 19:30N 40°38' W 074°04'3 2.6
2017-Nov-17 18:30N 40°39' W 074°07'3 0.1
2017-Nov-15 20:16N 40°39' W 074°11'2 7.7
2017-Nov-15 20:00N 40°39' W 074°09'2 3.6
2017-Nov-15 19:30N 40°41' W 074°09'0 0.0
2017-Nov-15 19:00N 40°41' W 074°09'0 0.0
2017-Nov-15 18:30N 40°41' W 074°09'0 0.0
2017-Nov-15 18:01N 40°41' W 074°09'0 0.0
2017-Nov-15 17:30N 40°41' W 074°09'0 0.6
2017-Nov-15 17:00N 40°41' W 074°09'2 4.8
2017-Nov-15 16:30N 40°39' W 074°11'0 0.9
2017-Nov-15 16:00N 40°39' W 074°11'0 0.1
2017-Nov-15 15:29N 40°39' W 074°11'0 0.0
2017-Nov-15 14:50N 40°39' W 074°11'0 0.0
2017-Nov-15 14:27N 40°39' W 074°11'0 0.0
2017-Nov-15 14:00N 40°39' W 074°11'  
Track history (hours):
 
Tides and Currents Weather Stations Pressure Air Temp Water Temp Dewpoint Dewpoint Depression Visibility Wind Speed Wind Dir Waves Ship Positions

Emma Miller

Owner: Marine Oil Service of New York, Elizabeth, NJ. More information available from US FCC via Universal Licensing System and Coast Guard Vessel Documentation Center.

Last reported at 2017-Nov-19 10:00 UTC. Time now 2017-Nov-19 10:07 UTC.
Position N 40°39' W 074°04'.

; draft 1.7 m.

Type: Tanker. MMSI: 367393330.

Date/timePositionNaut miles runAvg speedWind from/ knotsBaromVisibWave heightAir tempDewpointWater temp
2017-Nov-19 10:00N 40°39' W 074°04'0 0.0
2017-Nov-19 09:30N 40°39' W 074°04'0 0.0
2017-Nov-19 09:00N 40°39' W 074°04'0 0.3
2017-Nov-19 08:30N 40°38' W 074°04'4 7.5
2017-Nov-19 07:57N 40°39' W 074°10'2 0.1
2017-Nov-18 16:23N 40°38' W 074°12'2 5.8
2017-Nov-18 16:00N 40°39' W 074°09'3 6.3
2017-Nov-18 15:30N 40°39' W 074°05'1 1.4
2017-Nov-18 14:55N 40°40' W 074°04'0 0.0
2017-Nov-18 14:30N 40°40' W 074°04'0 0.0
2017-Nov-18 14:00N 40°40' W 074°04'0 0.0
2017-Nov-18 13:30N 40°40' W 074°04'3 6.0
2017-Nov-18 12:59N 40°39' W 074°08'3 6.0
2017-Nov-18 12:30N 40°38' W 074°12'0 0.0
2017-Nov-17 21:40N 40°38' W 074°12'1 4.1
2017-Nov-17 21:30N 40°39' W 074°11'4 8.4
2017-Nov-17 21:00N 40°39' W 074°06'1 2.8
2017-Nov-17 20:30N 40°38' W 074°04'0 0.0
2017-Nov-17 20:00N 40°38' W 074°04'0 0.0
2017-Nov-17 19:30N 40°38' W 074°04'3 2.6
2017-Nov-17 18:30N 40°39' W 074°07'3 0.1
2017-Nov-15 20:16N 40°39' W 074°11'2 7.7
2017-Nov-15 20:00N 40°39' W 074°09'2 3.6
2017-Nov-15 19:30N 40°41' W 074°09'0 0.0
2017-Nov-15 19:00N 40°41' W 074°09'0 0.0
2017-Nov-15 18:30N 40°41' W 074°09'0 0.0
2017-Nov-15 18:01N 40°41' W 074°09'0 0.0
2017-Nov-15 17:30N 40°41' W 074°09'0 0.6
2017-Nov-15 17:00N 40°41' W 074°09'2 4.8
2017-Nov-15 16:30N 40°39' W 074°11'0 0.9
2017-Nov-15 16:00N 40°39' W 074°11'0 0.1
2017-Nov-15 15:29N 40°39' W 074°11'0 0.0
2017-Nov-15 14:50N 40°39' W 074°11'0 0.0
2017-Nov-15 14:27N 40°39' W 074°11'0 0.0
2017-Nov-15 14:00N 40°39' W 074°11'  

Dump ship's entire track history